Bowesmont, North Dakota
Current Conditions -  °F | °C
As of 8:15 PM on Thursday 18 Dec 2014 (Local Time) from KHCO Reporting Station
Scattered Clouds Scattered Clouds  
Wind Chill:   Ceiling: Unl
Heat Index: 19°   Visibility: 10mi
Dew Point: 16°   Wind: 10mph
Humidity: 86%   Direction: 160°SSE
Pressure: 30.15"   Gusts: NA
Location:  48.6338°N, 97.2651°W
Report Text: KHCO 190215Z AUTO 16009KT 10SM SCT040 SCT046 M07/M09 A3015 RMK AO2
Loading
Personal Weather Stations






























Interactive Weather Map New forecast layout! Learn more

10-Day Weather Forecast

Advertisements
Track Severe Weather on mobile